Nearby METAR Reports

Meteorological Terminal Air Report (METAR)

K3I2 - Pt Pleasant, West Virginia, USA
Distance from station: S 11mi, 18km
Updated: Thu, 08-Sep-2022 1:30pm EDT
NOT Current
Partly cloudy
Partly cloudy
 Wind from calm
Wind: Calm
Temperature: 79°F , 26°C
Dew Point: 61°F , 16°C
Humidity: 54%
Barometer: 29.99 inHg , 1015.6 hPa
Clouds: Partly cloudy
Visibility: 10 miles , 16 km
Cloud details: Partly cloudy 3100 ft
Partly cloudy 3700 ft
2022/09/08 17:30 K3I2 081730Z AUTO 00000KT 10SM SCT031 SCT037 26/16 A2999 RMK AO2 T02590158
KUNI - Athens, Ohio, USA
Distance from station: NW 13mi, 21km
Updated: Sun, 25-Sep-2022 1:55am EDT
Clear
Clear
 Wind from SSW
Wind: SSW 3 mph , 6 km/h
Temperature: 59°F , 15°C
Dew Point: 57°F , 14°C
Humidity: 94%
Barometer: 29.84 inHg , 1010.5 hPa
Clouds: Clear
Visibility: 10 miles , 16 km
2022/09/25 05:55 KUNI 250555Z AUTO 21003KT 10SM CLR 15/14 A2984 RMK AO2 T01450140 10183 20132
 
KPKB - Parkersburg, West Virginia, USA
Distance from station: ENE 40mi, 65km
Updated: Sun, 25-Sep-2022 1:53am EDT
Clear
Clear
 Wind from SSW
Wind: SSW 7 mph , 11 km/h
Temperature: 61°F , 16°C
Dew Point: 55°F , 13°C
Humidity: 83%
Barometer: 29.85 inHg , 1010.8 hPa
Clouds: Clear
Visibility: 10 miles , 16 km
2022/09/25 05:53 KPKB 250553Z AUTO 20006KT 10SM CLR 16/13 A2985 RMK AO2 SLP104 T01560128 10183 20150 58014 $
KCRW - Charleston, West Virginia, USA
Distance from station: SSE 55mi, 88km
Updated: Sun, 25-Sep-2022 1:54am EDT
Mist, Few clouds
Mist, Few clouds
 Wind from SSW
Wind: SSW 3 mph , 6 km/h
Temperature: 55°F , 13°C
Dew Point: 55°F , 13°C
Humidity: 100%
Barometer: 29.89 inHg , 1012.2 hPa
Summary: Mist
Clouds: Few Clouds
Visibility: 6 miles , 10 km
Cloud details: Few Clouds 100 ft
2022/09/25 05:54 KCRW 250554Z 21003KT 6SM BR FEW001 13/13 A2989 RMK AO2 SLP114 VLY FG T01330133 10178 20133 58015 $
 
KHTS - Huntington, West Virginia, USA
Distance from station: SSW 55mi, 89km
Updated: Sun, 25-Sep-2022 1:51am EDT
Clear
Clear
 Wind from SSW
Wind: SSW 3 mph , 6 km/h
Temperature: 61°F , 16°C
Dew Point: 54°F , 12°C
Humidity: 77%
Barometer: 29.87 inHg , 1011.5 hPa
Clouds: Clear
Visibility: 10 miles , 16 km
2022/09/25 05:51 KHTS 250551Z 21003KT 10SM CLR 16/12 A2987 RMK AO2 SLP108 T01610122 10200 20161 58016 $
KLHQ - Lancaster, Ohio, USA
Distance from station: NW 56mi, 91km
Updated: Sun, 25-Sep-2022 1:53am EDT
Clear
Clear
 Wind from SSW
Wind: SSW 7 mph , 11 km/h
Temperature: 63°F , 17°C
Dew Point: 57°F , 14°C
Humidity: 83%
Barometer: 29.81 inHg , 1009.5 hPa
Clouds: Clear
Visibility: 10 miles , 16 km
2022/09/25 05:53 KLHQ 250553Z AUTO 21006KT 10SM CLR 17/14 A2981 RMK AO2 SLP090 T01670139 10189 20139 58020 $
 
KZZV - Zanesville, Ohio, USA
Distance from station: N 61mi, 99km
Updated: Sun, 25-Sep-2022 1:53am EDT
Clear
Clear
 Wind from S
Wind: S 3 mph , 6 km/h
Temperature: 59°F , 15°C
Dew Point: 54°F , 12°C
Humidity: 82%
Barometer: 29.81 inHg , 1009.5 hPa
Clouds: Clear
Visibility: 10 miles , 16 km
2022/09/25 05:53 KZZV 250553Z AUTO 19003KT 10SM CLR 15/12 A2981 RMK AO2 SLP090 T01500122 10178 20144 58020
KLCK - Rickenbacker Ang, Ohio, USA
Distance from station: NW 68mi, 110km
Updated: Sun, 25-Sep-2022 1:55am EDT
Partly cloudy
Partly cloudy
 Wind from SSW
Wind: SSW 8 mph , 13 km/h
Temperature: 61°F , 16°C
Dew Point: 57°F , 14°C
Humidity: 88%
Barometer: 29.80 inHg , 1009.1 hPa
Clouds: Partly cloudy
Visibility: 10 miles , 16 km
Cloud details: Partly cloudy 5500 ft
Partly cloudy 6500 ft
2022/09/25 05:55 KLCK 250555Z AUTO 20007KT 10SM SCT055 SCT065 16/14 A2980 RMK AO2 LTG DSNT N T01550135 10182 20155 402230120
 
KVTA - Newark, Ohio, USA
Distance from station: NNW 68mi, 110km
Updated: Sun, 25-Sep-2022 1:54am EDT
Clear
Clear
 Wind from SSW
Wind: SSW 5 mph , 7 km/h
Temperature: 61°F , 16°C
Dew Point: 55°F , 13°C
Humidity: 83%
Barometer: 29.79 inHg , 1008.8 hPa
Clouds: Clear
Visibility: 10 miles , 16 km
2022/09/25 05:54 KVTA 250554Z AUTO 20004KT 10SM CLR 16/13 A2979 RMK AO2 SLP085 T01610128 10189 20139 58021